Time;durP1;ratioP1;P1;durP2;ratioP2;P2;SDS_P1;SDS_P2;PMS_P1;PMS_P2;Temp;Humidity;BMP_temperature;BMP_pressure;BME280_temperature;BME280_humidity;BME280_pressure;Samples;Min_cycle;Max_cycle;Signal;HPM_P1;HPM_P2
2022/09/06 00:02:01;;;;;;;12.70;10.83;;;17.50;99.90;18.80;97305.00;;;;5066442;28;20196;-70
2022/09/06 00:04:51;;;;;;;12.87;11.57;;;17.50;99.90;18.80;97306.00;;;;5068422;28;20208;-70
2022/09/06 00:07:41;;;;;;;13.07;11.77;;;17.50;99.90;18.70;97307.00;;;;5069834;28;20204;-70
2022/09/06 00:10:31;;;;;;;11.33;10.33;;;17.40;99.90;18.80;97308.00;;;;5068888;28;20201;-70
2022/09/06 00:13:20;;;;;;;11.93;10.77;;;17.40;99.90;18.90;97305.00;;;;5067058;28;20694;-70
2022/09/06 00:16:12;;;;;;;12.37;11.03;;;17.40;99.90;18.90;97305.00;;;;5066736;28;20196;-70
2022/09/06 00:19:00;;;;;;;11.37;10.37;;;17.50;99.90;18.90;97315.00;;;;5069320;28;20196;-69
2022/09/06 00:21:50;;;;;;;11.53;10.43;;;17.50;99.90;18.80;97311.00;;;;5067383;28;20859;-70
2022/09/06 00:24:39;;;;;;;12.00;10.90;;;17.50;99.90;18.80;97311.00;;;;5068824;28;20219;-69
2022/09/06 00:27:28;;;;;;;12.47;11.33;;;17.50;99.90;18.50;97300.00;;;;5067344;28;20750;-69
2022/09/06 00:30:17;;;;;;;12.57;10.80;;;17.50;99.90;18.40;97301.00;;;;5067711;28;20227;-70
2022/09/06 00:33:06;;;;;;;11.60;10.50;;;17.40;99.90;18.50;97297.00;;;;5064055;28;20207;-70
2022/09/06 00:36:00;;;;;;;12.37;11.30;;;17.40;99.90;18.80;97294.00;;;;5068526;28;20204;-70
2022/09/06 00:38:50;;;;;;;12.63;11.43;;;17.40;99.90;18.80;97295.00;;;;5068791;28;20200;-70
2022/09/06 00:41:39;;;;;;;11.90;10.80;;;17.40;99.90;18.80;97297.00;;;;5067969;28;20202;-70
2022/09/06 00:44:27;;;;;;;11.90;10.80;;;17.40;99.90;18.70;97294.00;;;;5067233;28;20212;-70
2022/09/06 00:47:16;;;;;;;11.70;10.63;;;17.40;99.90;18.60;97298.00;;;;5061019;28;20196;-70
2022/09/06 00:50:08;;;;;;;11.67;10.77;;;17.40;99.90;18.40;97287.00;;;;5067142;28;20195;-70
2022/09/06 00:52:57;;;;;;;12.80;11.70;;;17.40;99.90;18.30;97286.00;;;;5067007;28;20758;-71
2022/09/06 00:55:47;;;;;;;15.90;11.13;;;17.30;99.90;18.50;97285.00;;;;5060514;28;20212;-70
2022/09/06 00:58:37;;;;;;;13.57;12.27;;;17.20;99.90;18.60;97278.00;;;;5069529;28;20191;-71
2022/09/06 01:01:26;;;;;;;12.60;11.43;;;17.20;99.90;18.70;97280.00;;;;5067367;28;20219;-71
2022/09/06 01:04:15;;;;;;;13.00;11.63;;;17.20;99.90;18.60;97287.00;;;;5067120;28;20263;-71
2022/09/06 01:07:10;;;;;;;13.53;12.13;;;17.20;99.90;18.30;97276.00;;;;5068176;28;20365;-70
2022/09/06 01:10:27;;;;;;;13.50;12.10;;;17.20;99.90;18.20;97277.00;;;;5061698;28;20591;-70
2022/09/06 01:13:34;;;;;;;12.83;11.70;;;17.10;99.90;18.30;97266.00;;;;5061725;28;20259;-70
2022/09/06 01:16:35;;;;;;;13.50;12.20;;;17.10;99.90;18.50;97268.00;;;;5067889;28;20203;-70
2022/09/06 01:20:13;;;;;;;15.80;13.07;;;17.10;99.90;18.60;97267.00;;;;5068155;28;20203;-70
2022/09/06 01:23:50;;;;;;;13.67;12.30;;;17.10;99.90;18.60;97266.00;;;;5067073;28;20200;-71
2022/09/06 01:27:29;;;;;;;18.00;12.57;;;17.10;99.90;18.30;97262.00;;;;5063639;28;20196;-70
2022/09/06 01:30:20;;;;;;;14.73;13.33;;;17.00;99.90;18.30;97259.00;;;;5067600;28;20207;-69
2022/09/06 01:33:17;;;;;;;13.63;12.30;;;17.00;99.90;18.20;97258.00;;;;5066448;28;20219;-70
2022/09/06 01:36:11;;;;;;;14.07;12.77;;;17.00;99.90;18.40;97259.00;;;;5066761;28;20219;-71
2022/09/06 01:38:59;;;;;;;13.77;12.37;;;17.00;99.90;18.40;97255.00;;;;5067766;28;20781;-70
2022/09/06 01:41:48;;;;;;;12.50;11.40;;;17.00;99.90;18.20;97265.00;;;;5067322;28;20199;-71
2022/09/06 01:44:40;;;;;;;13.33;12.03;;;17.00;99.90;18.30;97262.00;;;;5067226;28;20595;-71
2022/09/06 01:47:40;;;;;;;13.73;12.53;;;16.90;99.90;18.30;97263.00;;;;5068899;28;20199;-70
2022/09/06 01:50:54;;;;;;;12.77;11.47;;;16.90;99.90;18.30;97257.00;;;;5061066;28;20226;-70
2022/09/06 01:54:16;;;;;;;13.13;11.83;;;16.90;99.90;18.30;97247.00;;;;5066927;28;20224;-70
2022/09/06 01:57:23;;;;;;;12.83;11.63;;;16.90;99.90;18.10;97254.00;;;;5063566;28;20686;-71
2022/09/06 02:00:14;;;;;;;12.60;11.50;;;16.80;99.90;18.20;97249.00;;;;5063888;28;20196;-69
2022/09/06 02:03:13;;;;;;;12.83;11.53;;;16.80;99.90;18.10;97247.00;;;;5062403;28;20197;-70
2022/09/06 02:06:08;;;;;;;13.67;12.37;;;16.80;99.90;18.00;97249.00;;;;5067537;28;20667;-70
2022/09/06 02:09:03;;;;;;;12.43;10.73;;;16.70;99.90;17.80;97242.00;;;;5067829;28;20196;-70
2022/09/06 02:11:56;;;;;;;13.60;12.40;;;16.70;99.90;17.70;97241.00;;;;5065431;28;20226;-70
2022/09/06 02:14:51;;;;;;;12.27;11.07;;;16.60;99.90;17.70;97234.00;;;;5056038;28;20215;-70
2022/09/06 02:17:47;;;;;;;13.53;12.17;;;16.60;99.90;17.70;97239.00;;;;5062536;28;20216;-70
2022/09/06 02:20:42;;;;;;;12.30;11.20;;;16.50;99.90;17.50;97239.00;;;;5059635;28;20195;-70
2022/09/06 02:23:37;;;;;;;13.53;12.23;;;16.40;99.90;17.20;97238.00;;;;5082421;28;20203;-71
2022/09/06 02:26:30;;;;;;;16.27;12.80;;;16.30;99.90;17.00;97235.00;;;;5083117;28;20666;-70
2022/09/06 02:29:19;;;;;;;13.43;12.17;;;16.20;99.90;17.20;97248.00;;;;5091390;28;20206;-70
2022/09/06 02:32:14;;;;;;;14.17;12.50;;;16.10;99.90;17.20;97240.00;;;;5080392;28;20223;-70
2022/09/06 02:35:12;;;;;;;13.93;12.60;;;16.70;99.90;17.40;97225.00;;;;5074618;28;20212;-71
2022/09/06 02:38:02;;;;;;;14.73;13.07;;;16.00;99.90;17.50;97229.00;;;;5078408;28;20675;-71
2022/09/06 02:40:54;;;;;;;13.90;12.60;;;16.10;99.90;17.50;97218.00;;;;5089445;28;20195;-70
2022/09/06 02:43:43;;;;;;;17.07;14.17;;;16.10;99.90;17.50;97229.00;;;;5084284;28;20200;-70
2022/09/06 02:46:32;;;;;;;15.07;13.63;;;16.10;99.90;17.50;97220.00;;;;5089617;28;20689;-70
2022/09/06 02:49:20;;;;;;;13.40;11.93;;;16.10;99.90;17.30;97221.00;;;;5091289;28;20718;-71
2022/09/06 02:52:09;;;;;;;12.70;11.50;;;16.10;99.90;17.10;97224.00;;;;5091847;28;20226;-70
2022/09/06 02:54:59;;;;;;;14.47;12.53;;;16.00;99.90;16.90;97217.00;;;;5085136;28;20217;-69
2022/09/06 02:57:48;;;;;;;14.57;13.17;;;15.90;99.90;17.10;97222.00;;;;5090775;28;20202;-70
2022/09/06 03:00:37;;;;;;;17.13;13.53;;;15.90;99.90;17.20;97222.00;;;;5090893;28;20203;-70
2022/09/06 03:03:27;;;;;;;15.40;14.00;;;15.90;99.90;17.20;97218.00;;;;5090611;28;20199;-71
2022/09/06 03:06:15;;;;;;;14.90;13.30;;;15.90;99.90;17.30;97217.00;;;;5090253;28;20294;-70
2022/09/06 03:09:04;;;;;;;13.83;12.60;;;15.90;99.90;16.90;97217.00;;;;5083530;28;20210;-69
2022/09/06 03:11:54;;;;;;;14.90;13.40;;;15.90;99.90;16.80;97225.00;;;;5090518;28;20195;-71
2022/09/06 03:14:43;;;;;;;13.67;12.47;;;15.80;99.90;16.90;97217.00;;;;5088644;22;20251;-88
2022/09/06 03:17:32;;;;;;;15.83;14.23;;;15.70;99.90;16.80;97216.00;;;;5064997;28;20199;-87
2022/09/06 03:20:21;;;;;;;15.07;13.50;;;15.70;99.90;16.80;97219.00;;;;5070510;28;20196;-88
2022/09/06 03:23:10;;;;;;;14.67;13.37;;;15.70;99.90;16.90;97214.00;;;;5039213;28;20209;-87
2022/09/06 03:25:58;;;;;;;17.53;14.07;;;15.60;99.90;16.80;97209.00;;;;5050879;28;20396;-86
2022/09/06 03:28:49;;;;;;;16.07;13.80;;;15.60;99.90;16.60;97213.00;;;;5048328;28;20572;-87
2022/09/06 03:31:38;;;;;;;15.53;14.10;;;15.60;99.90;16.70;97212.00;;;;5048829;28;20235;-89
2022/09/06 03:34:26;;;;;;;15.73;14.33;;;15.60;99.90;16.90;97210.00;;;;5045451;28;20221;-88
2022/09/06 03:37:15;;;;;;;16.60;15.13;;;15.60;99.90;17.10;97216.00;;;;5043250;28;20205;-87
2022/09/06 03:40:05;;;;;;;16.27;14.57;;;15.70;99.90;17.10;97215.00;;;;5051241;28;20246;-88
2022/09/06 03:42:54;;;;;;;16.90;15.00;;;15.60;99.90;17.00;97212.00;;;;5072867;22;20304;-86
2022/09/06 03:45:48;;;;;;;17.10;15.30;;;15.70;99.90;17.30;97207.00;;;;5070514;28;20603;-86
2022/09/06 03:48:37;;;;;;;16.23;14.07;;;15.70;99.90;17.30;97203.00;;;;5071784;28;20234;-86
2022/09/06 03:51:26;;;;;;;15.47;13.97;;;15.80;99.90;17.00;97212.00;;;;5084234;28;20826;-87
2022/09/06 03:54:15;;;;;;;15.03;13.47;;;15.80;99.90;16.70;97194.00;;;;5087472;28;20239;-87
2022/09/06 03:57:04;;;;;;;15.00;13.63;;;15.70;99.90;16.70;97200.00;;;;5082331;28;20199;-88
2022/09/06 03:59:53;;;;;;;15.57;14.07;;;15.70;99.90;16.70;97199.00;;;;5073250;28;20204;-87
2022/09/06 04:02:43;;;;;;;16.57;14.97;;;15.60;99.90;16.90;97207.00;;;;5085553;28;20199;-87
2022/09/06 04:05:32;;;;;;;16.37;14.80;;;15.70;99.90;16.70;97214.00;;;;5078517;28;20199;-88
2022/09/06 04:08:20;;;;;;;14.70;13.20;;;15.70;99.90;16.70;97213.00;;;;5070617;28;20203;-88
2022/09/06 04:11:10;;;;;;;16.10;14.53;;;15.60;99.90;16.70;97216.00;;;;5069414;28;20200;-88
2022/09/06 04:13:58;;;;;;;19.53;16.70;;;15.60;99.90;16.90;97208.00;;;;5083426;28;20215;-88
2022/09/06 04:16:47;;;;;;;19.20;14.30;;;15.60;99.90;17.00;97206.00;;;;5092068;27;20683;-87
2022/09/06 04:19:38;;;;;;;14.77;13.27;;;15.50;99.90;17.10;97201.00;;;;5078042;28;20203;-87
2022/09/06 04:22:26;;;;;;;15.70;14.23;;;15.60;99.90;17.10;97201.00;;;;5070499;28;20199;-87
2022/09/06 04:25:15;;;;;;;14.90;13.43;;;15.70;99.90;17.00;97203.00;;;;5070490;28;20199;-87
2022/09/06 04:28:04;;;;;;;15.50;14.00;;;15.70;99.90;16.90;97195.00;;;;5068444;28;20712;-87
2022/09/06 04:30:54;;;;;;;14.87;13.50;;;15.70;99.90;16.80;97199.00;;;;5071579;28;20509;-87
2022/09/06 04:33:43;;;;;;;16.73;14.27;;;15.60;99.90;16.90;97195.00;;;;5080550;28;20223;-86
2022/09/06 04:36:33;;;;;;;15.27;13.33;;;15.60;99.90;16.70;97196.00;;;;5078256;28;20206;-86
2022/09/06 04:39:22;;;;;;;17.73;15.53;;;15.60;99.90;16.40;97185.00;;;;5075487;28;20617;-87
2022/09/06 04:42:12;;;;;;;17.87;15.93;;;15.50;99.90;16.50;97183.00;;;;5081015;28;20223;-87
2022/09/06 04:45:00;;;;;;;17.20;15.40;;;15.40;99.90;16.60;97197.00;;;;5069368;28;20199;-85
2022/09/06 04:47:50;;;;;;;16.97;15.33;;;15.40;99.90;16.50;97190.00;;;;5074743;28;20223;-86
2022/09/06 04:50:39;;;;;;;16.70;15.00;;;15.40;99.90;16.40;97192.00;;;;5089995;28;20570;-86
2022/09/06 04:53:29;;;;;;;16.97;15.17;;;15.30;99.90;16.40;97197.00;;;;5113590;28;20215;-86
2022/09/06 04:56:20;;;;;;;15.33;13.87;;;15.30;99.90;16.60;97190.00;;;;5102559;28;20196;-86
2022/09/06 04:59:09;;;;;;;17.40;15.80;;;15.30;99.90;16.60;97194.00;;;;5073269;28;20218;-86
2022/09/06 05:01:58;;;;;;;18.07;16.33;;;15.30;99.90;16.40;97197.00;;;;5080984;28;20211;-87
2022/09/06 05:04:47;;;;;;;18.20;16.33;;;15.30;99.90;16.50;97194.00;;;;5077293;28;20199;-86
2022/09/06 05:07:36;;;;;;;19.20;16.67;;;15.40;99.90;16.90;97196.00;;;;5074570;28;20334;-85
2022/09/06 05:10:26;;;;;;;18.37;16.53;;;15.40;99.90;17.10;97195.00;;;;5082909;28;20192;-85
2022/09/06 05:13:15;;;;;;;17.87;16.10;;;15.50;99.90;17.20;97201.00;;;;5090170;28;20207;-86
2022/09/06 05:16:06;;;;;;;18.23;16.53;;;15.60;99.90;17.40;97193.00;;;;5090334;28;20206;-86
2022/09/06 05:18:55;;;;;;;18.40;16.33;;;15.70;99.90;17.30;97212.00;;;;5081689;28;20225;-86
2022/09/06 05:21:44;;;;;;;17.90;16.10;;;15.80;99.90;17.20;97205.00;;;;5079995;28;20198;-86
2022/09/06 05:24:33;;;;;;;17.13;15.53;;;15.80;99.90;17.20;97207.00;;;;5069754;28;20203;-87
2022/09/06 05:27:23;;;;;;;16.47;14.87;;;15.80;99.90;17.10;97211.00;;;;5077684;28;20211;-87
2022/09/06 05:30:13;;;;;;;17.13;15.53;;;15.90;99.90;17.00;97208.00;;;;5081852;28;20195;-87
2022/09/06 05:33:02;;;;;;;16.10;14.37;;;15.90;99.90;17.00;97208.00;;;;5079584;28;20192;-86
2022/09/06 05:35:51;;;;;;;18.13;15.37;;;15.90;99.90;16.90;97207.00;;;;5082469;28;20195;-88
2022/09/06 05:38:40;;;;;;;16.53;14.97;;;15.90;99.90;17.00;97205.00;;;;5079964;28;20692;-88
2022/09/06 05:41:29;;;;;;;16.27;14.67;;;15.90;99.90;16.90;97202.00;;;;5070758;28;20215;-87
2022/09/06 05:44:19;;;;;;;17.20;15.40;;;15.90;99.90;16.90;97195.00;;;;5074512;28;20691;-87
2022/09/06 05:47:08;;;;;;;15.03;13.53;;;15.80;99.90;17.00;97200.00;;;;5077005;28;20559;-87
2022/09/06 05:49:57;;;;;;;15.23;13.63;;;15.80;99.90;17.10;97193.00;;;;5081167;28;20218;-85
2022/09/06 05:52:46;;;;;;;15.40;13.93;;;15.90;99.90;17.20;97193.00;;;;5085015;28;20500;-85
2022/09/06 05:55:36;;;;;;;14.53;13.17;;;15.90;99.90;17.00;97199.00;;;;5084055;28;20223;-88
2022/09/06 05:58:27;;;;;;;18.40;14.87;;;15.90;99.90;17.20;97198.00;;;;5083329;28;20207;-87
2022/09/06 06:01:22;;;;;;;15.43;13.97;;;15.90;99.90;17.20;97204.00;;;;5084322;28;20268;-87
2022/09/06 06:04:11;;;;;;;17.33;15.50;;;16.00;99.90;17.50;97201.00;;;;5086191;28;20462;-87
2022/09/06 06:07:00;;;;;;;15.83;14.23;;;16.00;99.90;17.40;97200.00;;;;5085730;28;20696;-87
2022/09/06 06:09:49;;;;;;;15.63;14.23;;;16.10;99.90;17.60;97195.00;;;;5078920;28;20586;-86
2022/09/06 06:12:38;;;;;;;17.17;13.77;;;16.20;99.90;17.70;97192.00;;;;5079360;28;20220;-87
2022/09/06 06:15:27;;;;;;;15.10;13.60;;;16.30;99.90;17.80;97190.00;;;;5081279;28;20219;-87
2022/09/06 06:18:18;;;;;;;15.40;13.80;;;16.30;99.90;17.80;97186.00;;;;5092494;28;20207;-87
2022/09/06 06:21:09;;;;;;;15.00;13.70;;;16.40;99.90;18.00;97184.00;;;;5092647;28;20203;-87
2022/09/06 06:24:00;;;;;;;15.70;14.07;;;16.50;99.90;18.00;97183.00;;;;5091711;28;20199;-87
2022/09/06 06:26:49;;;;;;;15.20;13.80;;;16.60;99.90;18.20;97178.00;;;;5081865;28;20207;-86
2022/09/06 06:29:38;;;;;;;18.97;13.83;;;16.70;99.90;18.40;97184.00;;;;5084433;28;20200;-86
2022/09/06 06:32:27;;;;;;;13.13;11.87;;;16.80;99.90;18.30;97185.00;;;;5083410;28;20199;-87
2022/09/06 06:35:17;;;;;;;15.70;13.37;;;16.90;99.90;18.40;97192.00;;;;5073706;28;20230;-87
2022/09/06 06:38:06;;;;;;;14.13;12.67;;;17.00;99.90;18.60;97182.00;;;;5081837;28;20283;-86
2022/09/06 06:40:55;;;;;;;15.20;12.77;;;17.10;99.90;18.90;97183.00;;;;5082286;28;20202;-86
2022/09/06 06:43:49;;;;;;;14.30;12.90;;;17.30;99.90;19.00;97184.00;;;;5105363;28;20267;-86
2022/09/06 06:46:40;;;;;;;15.37;13.27;;;17.40;99.90;18.90;97183.00;;;;5110668;28;20194;-87
2022/09/06 06:49:29;;;;;;;13.97;12.47;;;17.50;99.90;19.30;97181.00;;;;5098575;28;20212;-87
2022/09/06 06:52:20;;;;;;;13.83;12.40;;;17.60;99.90;19.60;97173.00;;;;5090743;28;20601;-87
2022/09/06 06:55:10;;;;;;;13.43;12.13;;;17.50;99.90;19.90;97179.00;;;;5088401;28;20223;-87
2022/09/06 06:58:00;;;;;;;15.87;11.97;;;18.00;99.90;20.20;97185.00;;;;5095343;28;20231;-86
2022/09/06 07:00:49;;;;;;;13.23;11.93;;;18.20;99.90;20.40;97181.00;;;;5101314;28;20213;-86
2022/09/06 07:03:38;;;;;;;13.27;11.80;;;18.40;99.90;20.50;97176.00;;;;5091022;28;20214;-87
2022/09/06 07:06:28;;;;;;;14.27;11.07;;;18.60;99.90;20.20;97179.00;;;;5084181;28;20575;-87
2022/09/06 07:09:38;;;;;;;12.23;11.13;;;18.70;99.90;20.10;97178.00;;;;5079488;28;20380;-87
2022/09/06 07:12:47;;;;;;;12.73;11.03;;;18.80;99.90;20.60;97185.00;;;;5080823;28;20310;-88
2022/09/06 07:15:36;;;;;;;10.90;9.83;;;18.90;99.90;20.70;97176.00;;;;5080450;28;20723;-87
2022/09/06 07:18:28;;;;;;;15.33;11.70;;;19.10;99.90;21.10;97183.00;;;;5082221;28;20235;-88
2022/09/06 07:21:24;;;;;;;11.17;10.13;;;19.20;99.90;21.40;97187.00;;;;5076903;28;20191;-85
2022/09/06 07:24:29;;;;;;;10.00;9.10;;;19.40;99.90;21.60;97188.00;;;;5077282;28;20630;-87
2022/09/06 07:27:19;;;;;;;10.60;9.50;;;19.70;99.90;21.80;97187.00;;;;5081400;28;20235;-86
2022/09/06 07:30:28;;;;;;;16.33;10.13;;;19.80;99.90;21.70;97189.00;;;;5084938;28;20227;-88
2022/09/06 07:33:17;;;;;;;10.53;9.53;;;20.00;99.90;22.30;97183.00;;;;5076114;28;20193;-87
2022/09/06 07:36:08;;;;;;;14.37;10.13;;;20.20;99.90;22.60;97186.00;;;;5081365;28;20219;-85
2022/09/06 07:38:57;;;;;;;10.30;9.20;;;20.40;99.90;22.60;97179.00;;;;5082941;28;20231;-85
2022/09/06 07:41:46;;;;;;;11.33;9.87;;;20.60;99.90;22.90;97185.00;;;;5084457;28;20215;-84
2022/09/06 07:44:36;;;;;;;10.70;8.33;;;20.80;99.90;22.90;97183.00;;;;5085448;28;20795;-87
2022/09/06 07:47:25;;;;;;;8.23;7.20;;;20.90;99.90;23.10;97182.00;;;;5090487;28;20220;-83
2022/09/06 07:50:33;;;;;;;8.67;7.87;;;21.10;99.90;23.30;97185.00;;;;5081480;28;20210;-87
2022/09/06 07:53:39;;;;;;;11.47;8.20;;;21.30;99.90;23.40;97178.00;;;;5084678;28;20676;-84
2022/09/06 07:56:29;;;;;;;9.50;8.50;;;21.40;99.90;23.60;97176.00;;;;5085716;28;20261;-87
2022/09/06 07:59:17;;;;;;;10.77;8.17;;;21.60;99.90;23.70;97188.00;;;;5083925;28;20216;-85
2022/09/06 08:02:08;;;;;;;9.77;7.63;;;21.70;99.90;23.90;97183.00;;;;5085759;28;20203;-87
2022/09/06 08:04:56;;;;;;;10.43;8.60;;;21.80;99.90;24.10;97185.00;;;;5080029;28;20636;-87
2022/09/06 08:07:45;;;;;;;10.03;7.63;;;22.00;99.90;24.20;97179.00;;;;5082438;28;20229;-86
2022/09/06 08:10:34;;;;;;;9.53;7.43;;;22.20;99.90;24.40;97184.00;;;;5085902;28;20204;-85
2022/09/06 08:13:23;;;;;;;8.07;7.27;;;22.40;99.90;24.60;97189.00;;;;5079461;28;20207;-87
2022/09/06 08:16:15;;;;;;;9.40;7.53;;;22.50;99.90;24.70;97183.00;;;;5083757;28;20230;-87
2022/09/06 08:19:09;;;;;;;9.23;7.23;;;22.70;99.90;24.80;97183.00;;;;5084551;28;20594;-88
2022/09/06 08:21:58;;;;;;;6.77;6.17;;;22.80;99.90;25.00;97183.00;;;;5077660;28;20230;-86
2022/09/06 08:24:46;;;;;;;7.97;7.27;;;22.90;99.90;25.10;97187.00;;;;5083920;28;20793;-85
2022/09/06 08:27:35;;;;;;;7.90;7.10;;;23.00;99.90;25.10;97189.00;;;;5084812;28;20224;-87
2022/09/06 08:30:24;;;;;;;8.13;7.43;;;23.10;99.90;25.20;97183.00;;;;5084738;28;20193;-85
2022/09/06 08:33:14;;;;;;;7.43;6.83;;;23.30;99.90;25.30;97182.00;;;;5085095;28;20222;-85
2022/09/06 08:36:05;;;;;;;7.60;7.00;;;23.40;99.90;24.60;97179.00;;;;5085154;28;20234;-87
2022/09/06 08:38:55;;;;;;;7.37;6.77;;;23.30;99.90;24.70;97176.00;;;;5079829;28;20616;-86
2022/09/06 08:41:50;;;;;;;8.20;7.50;;;23.20;99.90;25.30;97182.00;;;;5086662;28;20561;-87
2022/09/06 08:44:41;;;;;;;8.97;8.27;;;23.30;99.90;25.40;97174.00;;;;5081232;28;20196;-83
2022/09/06 08:47:45;;;;;;;8.40;7.07;;;23.50;99.90;24.60;97169.00;;;;5081652;28;20219;-83
2022/09/06 08:50:35;;;;;;;7.70;6.90;;;23.40;99.90;24.80;97172.00;;;;5084289;28;20206;-86
2022/09/06 08:53:27;;;;;;;8.00;7.30;;;23.40;99.90;25.00;97164.00;;;;5080766;28;20202;-87
2022/09/06 08:56:21;;;;;;;7.67;6.90;;;23.40;99.90;25.40;97161.00;;;;5081719;28;20248;-86
2022/09/06 08:59:16;;;;;;;7.57;6.63;;;23.50;99.90;25.80;97160.00;;;;5086152;28;20215;-85
2022/09/06 09:02:12;;;;;;;7.97;7.17;;;23.70;99.90;25.30;97164.00;;;;5086668;28;20215;-84
2022/09/06 09:05:06;;;;;;;7.83;7.23;;;23.80;99.90;25.50;97167.00;;;;5084416;28;20199;-84
2022/09/06 09:08:07;;;;;;;8.53;7.63;;;23.80;99.90;26.30;97164.00;;;;5087309;28;20223;-85
2022/09/06 09:11:03;;;;;;;8.00;7.13;;;24.10;99.90;26.50;97165.00;;;;5078806;28;20604;-82
2022/09/06 09:13:55;;;;;;;8.60;7.27;;;24.30;99.90;26.80;97166.00;;;;5089968;28;20215;-83
2022/09/06 09:16:44;;;;;;;9.10;8.20;;;24.50;99.90;27.10;97160.00;;;;5080800;28;20241;-84
2022/09/06 09:19:36;;;;;;;11.47;7.90;;;24.70;99.90;27.10;97154.00;;;;5088970;28;20206;-84
2022/09/06 09:22:25;;;;;;;7.93;7.23;;;25.00;99.90;27.20;97157.00;;;;5079627;28;20195;-86
2022/09/06 09:25:21;;;;;;;9.30;7.93;;;25.10;99.90;27.40;97153.00;;;;5078583;28;20210;-86
2022/09/06 09:28:17;;;;;;;9.13;8.23;;;25.20;99.90;27.60;97141.00;;;;5101241;23;20639;-73
2022/09/06 09:31:06;;;;;;;9.20;8.43;;;25.40;99.90;27.60;97130.00;;;;5095915;28;20209;-73
2022/09/06 09:33:55;;;;;;;8.10;7.07;;;25.50;99.90;27.60;97131.00;;;;5098749;28;20214;-73
2022/09/06 09:36:44;;;;;;;7.30;6.60;;;25.70;99.90;28.00;97132.00;;;;5079441;28;20225;-73
2022/09/06 09:39:55;;;;;;;7.53;6.83;;;25.80;99.90;28.20;97124.00;;;;5078752;28;20231;-73
2022/09/06 09:42:45;;;;;;;8.43;7.53;;;26.00;99.90;28.10;97122.00;;;;5074822;28;20686;-72
2022/09/06 09:45:35;;;;;;;7.47;6.73;;;26.10;99.90;28.20;97124.00;;;;5080260;28;20220;-73
2022/09/06 09:48:27;;;;;;;7.73;7.03;;;26.60;99.90;28.60;97116.00;;;;5076164;28;20225;-73
2022/09/06 09:51:22;;;;;;;7.57;6.80;;;26.40;99.90;28.80;97109.00;;;;5079596;28;20206;-73
2022/09/06 09:54:30;;;;;;;6.77;6.07;;;26.60;99.90;28.70;97110.00;;;;5077070;28;20210;-73
2022/09/06 09:57:20;;;;;;;8.47;6.63;;;26.80;99.90;28.90;97107.00;;;;5073141;28;20222;-73
2022/09/06 10:00:12;;;;;;;6.20;5.70;;;26.80;99.90;28.90;97109.00;;;;5080080;28;20203;-73
2022/09/06 10:03:13;;;;;;;6.30;5.80;;;26.90;99.90;29.20;97102.00;;;;5071429;28;20214;-74
2022/09/06 10:06:02;;;;;;;6.97;6.37;;;27.00;99.90;29.20;97100.00;;;;5080099;28;20261;-75
2022/09/06 10:08:51;;;;;;;11.47;6.63;;;27.20;99.90;29.20;97092.00;;;;5073053;28;20207;-73
2022/09/06 10:11:50;;;;;;;6.97;6.40;;;27.30;99.90;29.50;97096.00;;;;5077679;28;20207;-73
2022/09/06 10:14:42;;;;;;;6.77;6.20;;;27.40;99.90;30.00;97093.00;;;;5073374;28;20707;-73
2022/09/06 10:17:35;;;;;;;7.30;6.70;;;27.60;99.90;29.90;97090.00;;;;5078017;28;20714;-74
2022/09/06 10:20:35;;;;;;;7.30;6.60;;;27.80;99.90;29.80;97090.00;;;;5075255;28;20211;-73
2022/09/06 10:23:37;;;;;;;6.93;6.43;;;27.90;99.90;30.00;97092.00;;;;5067807;28;20201;-74
2022/09/06 10:26:51;;;;;;;7.73;7.13;;;28.00;99.90;29.30;97089.00;;;;5075096;28;20289;-74
2022/09/06 10:29:51;;;;;;;7.13;6.47;;;28.00;99.90;30.00;97091.00;;;;5070623;28;20589;-74
2022/09/06 10:32:42;;;;;;;7.93;7.23;;;28.00;99.90;30.50;97090.00;;;;5077560;28;20197;-74
2022/09/06 10:35:38;;;;;;;7.47;6.67;;;28.20;99.90;30.40;97081.00;;;;5076082;28;20224;-73
2022/09/06 10:38:45;;;;;;;8.30;7.50;;;28.30;99.90;30.40;97075.00;;;;5081663;28;20554;-74
2022/09/06 10:41:54;;;;;;;7.63;6.93;;;28.40;99.90;30.30;97072.00;;;;5074640;28;20198;-73
2022/09/06 10:44:58;;;;;;;9.33;7.03;;;28.50;99.90;30.90;97076.00;;;;5086849;28;20224;-74
2022/09/06 10:47:59;;;;;;;9.37;8.47;;;28.60;99.90;31.10;97074.00;;;;5080013;28;20208;-74
2022/09/06 10:50:56;;;;;;;7.63;6.97;;;28.80;99.90;31.20;97073.00;;;;5079450;28;20206;-74
2022/09/06 10:53:50;;;;;;;9.40;8.50;;;28.90;99.90;31.00;97073.00;;;;5078108;28;20206;-74
2022/09/06 10:56:44;;;;;;;9.00;8.17;;;29.00;99.90;31.30;97080.00;;;;5077732;28;20224;-74
2022/09/06 10:59:35;;;;;;;9.60;8.70;;;29.20;99.90;31.10;97064.00;;;;5087074;28;20297;-74
2022/09/06 11:02:38;;;;;;;8.07;7.28;;;29.30;99.90;30.40;97085.00;;;;5081211;28;20648;-75
2022/09/06 11:05:31;;;;;;;9.52;7.88;;;29.20;99.90;30.00;97059.00;;;;5076530;28;20234;-74
2022/09/06 11:08:35;;;;;;;9.32;8.43;;;29.00;99.90;31.20;97059.00;;;;5082873;28;20207;-74
2022/09/06 11:11:44;;;;;;;9.07;8.27;;;29.00;99.90;32.10;97057.00;;;;5082211;28;20595;-74
2022/09/06 11:14:35;;;;;;;9.18;8.25;;;29.30;99.90;32.10;97058.00;;;;5078939;28;20857;-74
2022/09/06 11:17:34;;;;;;;8.75;7.85;;;29.70;99.90;32.30;97051.00;;;;5076988;28;20238;-75
2022/09/06 11:20:28;;;;;;;8.32;7.63;;;29.90;99.40;32.80;97053.00;;;;5080613;28;20193;-73
2022/09/06 11:23:48;;;;;;;8.88;8.00;;;30.20;99.30;32.60;97041.00;;;;5076521;28;20240;-74
2022/09/06 11:26:44;;;;;;;8.40;7.65;;;30.50;98.80;32.30;97039.00;;;;5074170;28;20412;-75
2022/09/06 11:29:35;;;;;;;8.02;7.00;;;30.60;96.80;33.70;97036.00;;;;5082059;28;20213;-74
2022/09/06 11:32:33;;;;;;;8.00;7.30;;;30.90;97.90;33.80;97042.00;;;;5066721;28;20281;-75
2022/09/06 11:35:24;;;;;;;8.10;7.40;;;31.10;96.50;33.90;97033.00;;;;5077040;28;20251;-75
2022/09/06 11:38:24;;;;;;;8.35;7.68;;;31.40;96.10;34.10;97043.00;;;;5082179;28;20586;-75
2022/09/06 11:41:17;;;;;;;7.97;7.35;;;31.60;95.10;33.60;97022.00;;;;5076281;28;20198;-75
2022/09/06 11:44:08;;;;;;;7.50;6.80;;;31.70;94.10;33.70;97021.00;;;;5078958;28;20202;-75
2022/09/06 11:47:06;;;;;;;7.82;7.05;;;31.60;94.00;34.60;97020.00;;;;5082072;28;20219;-75
2022/09/06 11:49:55;;;;;;;8.10;7.45;;;31.70;93.90;34.10;97021.00;;;;5080364;28;20203;-74
2022/09/06 11:53:11;;;;;;;7.38;6.78;;;32.00;93.10;33.70;97004.00;;;;5077114;28;20199;-74
2022/09/06 11:56:29;;;;;;;7.90;7.30;;;32.00;92.40;33.90;97014.00;;;;5077295;28;20227;-75
2022/09/06 11:59:33;;;;;;;7.82;7.10;;;32.10;90.90;33.50;97007.00;;;;5078423;28;20649;-74
2022/09/06 12:02:46;;;;;;;8.45;6.82;;;32.10;90.90;34.00;97016.00;;;;5075545;28;20199;-73
2022/09/06 12:06:15;;;;;;;7.63;6.90;;;31.90;91.40;33.90;96989.00;;;;5071602;28;20222;-74
2022/09/06 12:09:30;;;;;;;7.00;6.38;;;32.10;90.40;34.80;97017.00;;;;5081928;28;20214;-73
2022/09/06 12:12:46;;;;;;;7.20;6.47;;;32.40;90.00;32.90;97049.00;;;;5077410;28;20200;-74
2022/09/06 12:15:46;;;;;;;7.18;5.90;;;32.00;86.60;33.00;97024.00;;;;5077068;28;20208;-74
2022/09/06 12:18:58;;;;;;;6.47;5.90;;;31.70;88.50;33.60;96968.00;;;;5078302;28;20262;-77
2022/09/06 12:21:51;;;;;;;8.77;7.93;;;31.60;88.20;34.30;96973.00;;;;5076236;28;20203;-74
2022/09/06 12:24:55;;;;;;;7.45;6.72;;;31.90;89.20;33.50;96963.00;;;;5077107;28;20223;-75
2022/09/06 12:27:56;;;;;;;7.30;6.70;;;31.80;87.60;35.40;96979.00;;;;5084615;28;20210;-75
2022/09/06 12:30:48;;;;;;;7.35;6.75;;;32.20;87.90;35.00;96996.00;;;;5083086;28;20701;-75
2022/09/06 12:33:38;;;;;;;6.88;6.35;;;32.40;88.00;35.20;96968.00;;;;5071887;28;20214;-73
2022/09/06 12:36:30;;;;;;;10.07;6.70;;;32.60;85.80;36.20;96965.00;;;;5079448;28;20229;-74
2022/09/06 12:39:21;;;;;;;11.43;6.22;;;33.00;86.50;36.70;96958.00;;;;5075303;28;20203;-75
2022/09/06 12:42:13;;;;;;;8.65;6.38;;;33.50;85.50;36.50;97015.00;;;;5077762;28;20196;-75